sensor_id;sensor_type;location;lat;lon;timestamp;P1;durP1;ratioP1;P2;durP2;ratioP2
46717;SDS011;32448;44.960;-0.698;2023-03-01T05:27:40;9.57;;;6.22;;
46717;SDS011;32448;44.960;-0.698;2023-03-01T05:30:14;8.85;;;6.25;;
46717;SDS011;32448;44.960;-0.698;2023-03-01T05:32:48;9.00;;;6.13;;
46717;SDS011;32448;44.960;-0.698;2023-03-01T05:35:33;9.52;;;6.03;;
46717;SDS011;32448;44.960;-0.698;2023-03-01T05:38:03;13.93;;;7.53;;
46717;SDS011;32448;44.960;-0.698;2023-03-01T05:40:44;10.70;;;7.13;;
46717;SDS011;32448;44.960;-0.698;2023-03-01T05:43:20;10.77;;;7.30;;
46717;SDS011;32448;44.960;-0.698;2023-03-01T05:45:49;10.98;;;7.20;;
46717;SDS011;32448;44.960;-0.698;2023-03-01T05:48:16;11.50;;;7.05;;
46717;SDS011;32448;44.960;-0.698;2023-03-01T05:50:46;13.55;;;7.65;;
46717;SDS011;32448;44.960;-0.698;2023-03-01T05:53:15;13.77;;;8.63;;
46717;SDS011;32448;44.960;-0.698;2023-03-01T05:55:45;16.08;;;8.80;;
46717;SDS011;32448;44.960;-0.698;2023-03-01T05:58:15;13.82;;;8.88;;
46717;SDS011;32448;44.960;-0.698;2023-03-01T06:00:48;14.32;;;8.82;;
46717;SDS011;32448;44.960;-0.698;2023-03-01T06:03:16;14.35;;;9.15;;
46717;SDS011;32448;44.960;-0.698;2023-03-01T06:05:44;12.07;;;7.78;;
46717;SDS011;32448;44.960;-0.698;2023-03-01T06:08:12;14.20;;;9.00;;
46717;SDS011;32448;44.960;-0.698;2023-03-01T06:10:40;18.75;;;10.85;;
46717;SDS011;32448;44.960;-0.698;2023-03-01T06:13:08;18.92;;;10.88;;
46717;SDS011;32448;44.960;-0.698;2023-03-01T06:15:35;21.45;;;12.90;;
46717;SDS011;32448;44.960;-0.698;2023-03-01T06:18:02;19.65;;;12.68;;
46717;SDS011;32448;44.960;-0.698;2023-03-01T06:20:30;21.00;;;12.82;;
46717;SDS011;32448;44.960;-0.698;2023-03-01T06:22:57;17.25;;;10.60;;
46717;SDS011;32448;44.960;-0.698;2023-03-01T06:25:25;13.75;;;9.02;;
46717;SDS011;32448;44.960;-0.698;2023-03-01T06:27:53;13.05;;;8.25;;
46717;SDS011;32448;44.960;-0.698;2023-03-01T06:30:22;11.73;;;8.27;;
46717;SDS011;32448;44.960;-0.698;2023-03-01T06:32:51;12.32;;;8.25;;
46717;SDS011;32448;44.960;-0.698;2023-03-01T06:35:20;11.10;;;7.57;;
46717;SDS011;32448;44.960;-0.698;2023-03-01T06:37:48;11.45;;;7.38;;
46717;SDS011;32448;44.960;-0.698;2023-03-01T06:40:16;11.43;;;7.10;;
46717;SDS011;32448;44.960;-0.698;2023-03-01T06:42:47;12.88;;;8.75;;
46717;SDS011;32448;44.960;-0.698;2023-03-01T06:45:17;13.63;;;8.70;;
46717;SDS011;32448;44.960;-0.698;2023-03-01T06:47:48;14.23;;;8.45;;
46717;SDS011;32448;44.960;-0.698;2023-03-01T06:50:17;13.00;;;8.73;;
46717;SDS011;32448;44.960;-0.698;2023-03-01T06:52:45;12.40;;;7.90;;
46717;SDS011;32448;44.960;-0.698;2023-03-01T06:55:17;13.45;;;7.75;;
46717;SDS011;32448;44.960;-0.698;2023-03-01T06:57:48;14.40;;;9.02;;
46717;SDS011;32448;44.960;-0.698;2023-03-01T07:00:17;13.45;;;8.57;;
46717;SDS011;32448;44.960;-0.698;2023-03-01T07:02:50;12.07;;;8.13;;
46717;SDS011;32448;44.960;-0.698;2023-03-01T07:05:19;12.20;;;8.07;;
46717;SDS011;32448;44.960;-0.698;2023-03-01T07:07:56;11.55;;;8.20;;
46717;SDS011;32448;44.960;-0.698;2023-03-01T07:10:35;13.35;;;8.80;;
46717;SDS011;32448;44.960;-0.698;2023-03-01T07:13:04;13.98;;;8.52;;
46717;SDS011;32448;44.960;-0.698;2023-03-01T07:15:39;16.95;;;8.45;;
46717;SDS011;32448;44.960;-0.698;2023-03-01T07:18:13;16.63;;;8.20;;
46717;SDS011;32448;44.960;-0.698;2023-03-01T07:20:44;11.18;;;7.43;;
46717;SDS011;32448;44.960;-0.698;2023-03-01T07:23:13;12.73;;;7.60;;
46717;SDS011;32448;44.960;-0.698;2023-03-01T07:25:42;11.93;;;8.00;;
46717;SDS011;32448;44.960;-0.698;2023-03-01T07:28:10;12.70;;;8.05;;
46717;SDS011;32448;44.960;-0.698;2023-03-01T07:30:41;14.00;;;8.68;;
46717;SDS011;32448;44.960;-0.698;2023-03-01T07:33:13;18.60;;;9.75;;
46717;SDS011;32448;44.960;-0.698;2023-03-01T07:35:44;15.68;;;9.55;;
46717;SDS011;32448;44.960;-0.698;2023-03-01T07:38:17;14.90;;;9.23;;
46717;SDS011;32448;44.960;-0.698;2023-03-01T07:40:52;18.42;;;10.25;;
46717;SDS011;32448;44.960;-0.698;2023-03-01T07:46:00;17.30;;;10.13;;
46717;SDS011;32448;44.960;-0.698;2023-03-01T07:48:30;16.00;;;9.52;;
46717;SDS011;32448;44.960;-0.698;2023-03-01T07:51:00;17.83;;;11.40;;
46717;SDS011;32448;44.960;-0.698;2023-03-01T07:53:40;21.23;;;13.20;;
46717;SDS011;32448;44.960;-0.698;2023-03-01T07:56:12;22.48;;;14.38;;
46717;SDS011;32448;44.960;-0.698;2023-03-01T07:58:55;20.55;;;13.98;;
46717;SDS011;32448;44.960;-0.698;2023-03-01T08:01:29;19.75;;;12.15;;
46717;SDS011;32448;44.960;-0.698;2023-03-01T08:04:08;16.77;;;10.95;;
46717;SDS011;32448;44.960;-0.698;2023-03-01T08:06:56;21.90;;;11.48;;
46717;SDS011;32448;44.960;-0.698;2023-03-01T08:09:34;20.98;;;12.20;;
46717;SDS011;32448;44.960;-0.698;2023-03-01T08:12:07;17.33;;;11.45;;
46717;SDS011;32448;44.960;-0.698;2023-03-01T08:14:36;17.80;;;11.43;;
46717;SDS011;32448;44.960;-0.698;2023-03-01T08:17:08;19.23;;;10.67;;
46717;SDS011;32448;44.960;-0.698;2023-03-01T08:19:37;17.13;;;10.63;;
46717;SDS011;32448;44.960;-0.698;2023-03-01T08:22:05;20.35;;;10.70;;
46717;SDS011;32448;44.960;-0.698;2023-03-01T08:24:34;15.38;;;10.63;;
46717;SDS011;32448;44.960;-0.698;2023-03-01T08:27:03;15.48;;;9.48;;
46717;SDS011;32448;44.960;-0.698;2023-03-01T08:29:56;17.90;;;11.02;;
46717;SDS011;32448;44.960;-0.698;2023-03-01T08:32:36;17.65;;;10.73;;
46717;SDS011;32448;44.960;-0.698;2023-03-01T08:35:19;16.20;;;10.73;;
46717;SDS011;32448;44.960;-0.698;2023-03-01T08:37:52;15.80;;;10.75;;
46717;SDS011;32448;44.960;-0.698;2023-03-01T08:40:24;16.23;;;10.18;;
46717;SDS011;32448;44.960;-0.698;2023-03-01T08:45:45;16.67;;;10.63;;
46717;SDS011;32448;44.960;-0.698;2023-03-01T08:48:24;18.23;;;10.88;;
46717;SDS011;32448;44.960;-0.698;2023-03-01T08:51:07;17.60;;;11.55;;
46717;SDS011;32448;44.960;-0.698;2023-03-01T08:53:41;16.48;;;10.82;;
46717;SDS011;32448;44.960;-0.698;2023-03-01T08:56:15;14.50;;;9.55;;
46717;SDS011;32448;44.960;-0.698;2023-03-01T08:58:50;16.92;;;10.55;;
46717;SDS011;32448;44.960;-0.698;2023-03-01T09:01:19;15.03;;;10.50;;
46717;SDS011;32448;44.960;-0.698;2023-03-01T09:03:46;15.35;;;10.60;;
46717;SDS011;32448;44.960;-0.698;2023-03-01T09:06:15;16.75;;;10.85;;
46717;SDS011;32448;44.960;-0.698;2023-03-01T09:08:44;18.40;;;11.00;;
46717;SDS011;32448;44.960;-0.698;2023-03-01T09:11:15;18.15;;;10.38;;
46717;SDS011;32448;44.960;-0.698;2023-03-01T09:13:45;23.70;;;11.02;;
46717;SDS011;32448;44.960;-0.698;2023-03-01T09:16:16;15.43;;;9.65;;
46717;SDS011;32448;44.960;-0.698;2023-03-01T09:18:50;24.90;;;10.40;;
46717;SDS011;32448;44.960;-0.698;2023-03-01T09:21:20;22.30;;;12.25;;
46717;SDS011;32448;44.960;-0.698;2023-03-01T09:24:13;25.30;;;12.18;;
46717;SDS011;32448;44.960;-0.698;2023-03-01T09:26:42;21.08;;;11.57;;
46717;SDS011;32448;44.960;-0.698;2023-03-01T09:29:16;18.52;;;10.68;;
46717;SDS011;32448;44.960;-0.698;2023-03-01T09:31:48;14.10;;;9.50;;
46717;SDS011;32448;44.960;-0.698;2023-03-01T09:34:17;13.50;;;8.82;;
46717;SDS011;32448;44.960;-0.698;2023-03-01T09:36:50;14.82;;;9.93;;
46717;SDS011;32448;44.960;-0.698;2023-03-01T09:39:19;14.93;;;9.90;;
46717;SDS011;32448;44.960;-0.698;2023-03-01T09:42:01;13.75;;;9.52;;
46717;SDS011;32448;44.960;-0.698;2023-03-01T09:47:41;16.05;;;10.05;;
46717;SDS011;32448;44.960;-0.698;2023-03-01T09:50:14;13.55;;;8.95;;
46717;SDS011;32448;44.960;-0.698;2023-03-01T09:53:09;14.63;;;9.68;;
46717;SDS011;32448;44.960;-0.698;2023-03-01T09:58:31;16.25;;;10.57;;
46717;SDS011;32448;44.960;-0.698;2023-03-01T10:01:24;15.32;;;10.68;;
46717;SDS011;32448;44.960;-0.698;2023-03-01T10:07:21;13.32;;;9.93;;
46717;SDS011;32448;44.960;-0.698;2023-03-01T10:10:43;12.98;;;9.57;;
46717;SDS011;32448;44.960;-0.698;2023-03-01T10:13:33;13.05;;;9.35;;
46717;SDS011;32448;44.960;-0.698;2023-03-01T10:16:17;13.00;;;10.00;;
46717;SDS011;32448;44.960;-0.698;2023-03-01T10:18:53;12.75;;;9.25;;
46717;SDS011;32448;44.960;-0.698;2023-03-01T10:21:27;12.55;;;8.13;;
46717;SDS011;32448;44.960;-0.698;2023-03-01T10:24:08;13.00;;;8.80;;
46717;SDS011;32448;44.960;-0.698;2023-03-01T10:26:47;13.77;;;8.65;;
46717;SDS011;32448;44.960;-0.698;2023-03-01T10:29:23;12.52;;;8.85;;
46717;SDS011;32448;44.960;-0.698;2023-03-01T10:32:05;14.35;;;9.15;;
46717;SDS011;32448;44.960;-0.698;2023-03-01T10:34:34;13.30;;;9.13;;
46717;SDS011;32448;44.960;-0.698;2023-03-01T10:37:37;11.93;;;8.75;;
46717;SDS011;32448;44.960;-0.698;2023-03-01T10:40:00;12.80;;;8.82;;
46717;SDS011;32448;44.960;-0.698;2023-03-01T10:42:46;11.57;;;8.15;;
46717;SDS011;32448;44.960;-0.698;2023-03-01T10:53:57;11.43;;;7.90;;
46717;SDS011;32448;44.960;-0.698;2023-03-01T10:56:27;10.15;;;7.45;;
46717;SDS011;32448;44.960;-0.698;2023-03-01T10:59:03;10.48;;;7.57;;
46717;SDS011;32448;44.960;-0.698;2023-03-01T11:01:39;12.30;;;7.75;;
46717;SDS011;32448;44.960;-0.698;2023-03-01T11:04:13;10.07;;;7.30;;
46717;SDS011;32448;44.960;-0.698;2023-03-01T11:07:08;12.93;;;8.63;;
46717;SDS011;32448;44.960;-0.698;2023-03-01T11:09:46;13.95;;;7.75;;
46717;SDS011;32448;44.960;-0.698;2023-03-01T11:12:20;13.17;;;8.73;;
46717;SDS011;32448;44.960;-0.698;2023-03-01T11:15:19;12.85;;;8.63;;
46717;SDS011;32448;44.960;-0.698;2023-03-01T11:18:39;12.90;;;8.60;;
46717;SDS011;32448;44.960;-0.698;2023-03-01T11:21:24;13.63;;;8.52;;
46717;SDS011;32448;44.960;-0.698;2023-03-01T11:24:14;10.90;;;8.38;;
46717;SDS011;32448;44.960;-0.698;2023-03-01T11:26:51;12.77;;;8.45;;
46717;SDS011;32448;44.960;-0.698;2023-03-01T11:32:18;11.60;;;8.05;;
46717;SDS011;32448;44.960;-0.698;2023-03-01T11:38:03;14.23;;;9.90;;
46717;SDS011;32448;44.960;-0.698;2023-03-01T11:43:51;12.93;;;9.63;;
46717;SDS011;32448;44.960;-0.698;2023-03-01T11:52:29;13.95;;;10.48;;
46717;SDS011;32448;44.960;-0.698;2023-03-01T11:55:29;15.35;;;10.82;;
46717;SDS011;32448;44.960;-0.698;2023-03-01T11:58:36;15.50;;;10.63;;
46717;SDS011;32448;44.960;-0.698;2023-03-01T12:04:53;14.77;;;10.05;;
46717;SDS011;32448;44.960;-0.698;2023-03-01T12:07:52;14.45;;;10.40;;
46717;SDS011;32448;44.960;-0.698;2023-03-01T12:19:58;13.85;;;10.48;;
46717;SDS011;32448;44.960;-0.698;2023-03-01T12:22:58;14.23;;;10.43;;
46717;SDS011;32448;44.960;-0.698;2023-03-01T12:26:02;18.80;;;11.45;;
46717;SDS011;32448;44.960;-0.698;2023-03-01T12:31:47;18.02;;;12.18;;
46717;SDS011;32448;44.960;-0.698;2023-03-01T12:37:29;16.35;;;11.60;;
46717;SDS011;32448;44.960;-0.698;2023-03-01T12:40:33;16.45;;;11.35;;
46717;SDS011;32448;44.960;-0.698;2023-03-01T12:50:52;20.75;;;13.15;;
46717;SDS011;32448;44.960;-0.698;2023-03-01T12:53:34;16.92;;;11.75;;
46717;SDS011;32448;44.960;-0.698;2023-03-01T12:56:17;15.65;;;11.63;;
46717;SDS011;32448;44.960;-0.698;2023-03-01T12:59:32;20.15;;;12.55;;
46717;SDS011;32448;44.960;-0.698;2023-03-01T13:29:00;16.92;;;12.30;;
46717;SDS011;32448;44.960;-0.698;2023-03-01T13:34:00;19.13;;;12.68;;
46717;SDS011;32448;44.960;-0.698;2023-03-01T13:39:28;17.95;;;12.32;;
46717;SDS011;32448;44.960;-0.698;2023-03-01T13:42:01;16.73;;;12.57;;
46717;SDS011;32448;44.960;-0.698;2023-03-01T13:44:34;17.05;;;12.00;;
46717;SDS011;32448;44.960;-0.698;2023-03-01T13:47:15;19.25;;;13.23;;
46717;SDS011;32448;44.960;-0.698;2023-03-01T13:49:52;16.70;;;11.93;;
46717;SDS011;32448;44.960;-0.698;2023-03-01T13:52:32;16.60;;;11.25;;
46717;SDS011;32448;44.960;-0.698;2023-03-01T13:55:41;15.20;;;11.65;;
46717;SDS011;32448;44.960;-0.698;2023-03-01T13:58:15;16.92;;;11.80;;
46717;SDS011;32448;44.960;-0.698;2023-03-01T14:01:00;16.88;;;12.20;;
46717;SDS011;32448;44.960;-0.698;2023-03-01T14:03:34;16.98;;;11.50;;
46717;SDS011;32448;44.960;-0.698;2023-03-01T14:06:15;18.05;;;11.63;;
46717;SDS011;32448;44.960;-0.698;2023-03-01T14:08:48;19.08;;;12.30;;
46717;SDS011;32448;44.960;-0.698;2023-03-01T14:14:38;15.20;;;10.30;;
46717;SDS011;32448;44.960;-0.698;2023-03-01T14:20:14;15.60;;;11.13;;
46717;SDS011;32448;44.960;-0.698;2023-03-01T14:22:52;17.73;;;11.55;;
46717;SDS011;32448;44.960;-0.698;2023-03-01T14:25:31;15.68;;;11.18;;
46717;SDS011;32448;44.960;-0.698;2023-03-01T14:28:23;16.05;;;11.68;;
46717;SDS011;32448;44.960;-0.698;2023-03-01T14:30:59;16.08;;;11.30;;
46717;SDS011;32448;44.960;-0.698;2023-03-01T14:33:32;15.60;;;11.15;;
46717;SDS011;32448;44.960;-0.698;2023-03-01T14:36:09;16.07;;;11.73;;
46717;SDS011;32448;44.960;-0.698;2023-03-01T14:38:57;16.77;;;11.93;;
46717;SDS011;32448;44.960;-0.698;2023-03-01T14:41:33;18.00;;;12.30;;
46717;SDS011;32448;44.960;-0.698;2023-03-01T14:44:06;18.40;;;13.07;;
46717;SDS011;32448;44.960;-0.698;2023-03-01T14:46:40;18.42;;;13.07;;
46717;SDS011;32448;44.960;-0.698;2023-03-01T14:49:15;19.55;;;12.40;;
46717;SDS011;32448;44.960;-0.698;2023-03-01T14:52:00;18.23;;;12.50;;
46717;SDS011;32448;44.960;-0.698;2023-03-01T15:00:20;20.48;;;12.93;;
46717;SDS011;32448;44.960;-0.698;2023-03-01T15:02:56;20.40;;;13.93;;
46717;SDS011;32448;44.960;-0.698;2023-03-01T15:05:34;20.25;;;13.60;;
46717;SDS011;32448;44.960;-0.698;2023-03-01T15:08:03;20.02;;;13.88;;
46717;SDS011;32448;44.960;-0.698;2023-03-01T15:10:33;17.98;;;12.65;;
46717;SDS011;32448;44.960;-0.698;2023-03-01T15:13:12;17.67;;;12.33;;
46717;SDS011;32448;44.960;-0.698;2023-03-01T15:15:41;18.55;;;13.75;;
46717;SDS011;32448;44.960;-0.698;2023-03-01T15:18:19;21.48;;;14.95;;
46717;SDS011;32448;44.960;-0.698;2023-03-01T15:20:55;19.30;;;13.20;;
46717;SDS011;32448;44.960;-0.698;2023-03-01T15:23:48;19.55;;;14.23;;
46717;SDS011;32448;44.960;-0.698;2023-03-01T15:26:26;22.55;;;14.35;;
46717;SDS011;32448;44.960;-0.698;2023-03-01T15:28:59;19.23;;;13.85;;
46717;SDS011;32448;44.960;-0.698;2023-03-01T15:31:31;19.73;;;13.75;;
46717;SDS011;32448;44.960;-0.698;2023-03-01T15:34:10;18.52;;;13.35;;
46717;SDS011;32448;44.960;-0.698;2023-03-01T15:37:03;20.02;;;13.80;;
46717;SDS011;32448;44.960;-0.698;2023-03-01T15:39:57;22.80;;;14.07;;
46717;SDS011;32448;44.960;-0.698;2023-03-01T15:45:10;19.02;;;13.77;;
46717;SDS011;32448;44.960;-0.698;2023-03-01T15:48:15;21.60;;;14.40;;
46717;SDS011;32448;44.960;-0.698;2023-03-01T15:50:54;18.38;;;13.52;;
46717;SDS011;32448;44.960;-0.698;2023-03-01T15:53:34;21.20;;;14.30;;
46717;SDS011;32448;44.960;-0.698;2023-03-01T15:56:19;23.52;;;14.63;;
46717;SDS011;32448;44.960;-0.698;2023-03-01T15:58:46;22.00;;;14.45;;
46717;SDS011;32448;44.960;-0.698;2023-03-01T16:01:25;19.50;;;14.40;;
46717;SDS011;32448;44.960;-0.698;2023-03-01T16:03:57;21.50;;;13.52;;
46717;SDS011;32448;44.960;-0.698;2023-03-01T16:06:25;19.85;;;13.52;;
46717;SDS011;32448;44.960;-0.698;2023-03-01T16:08:52;20.30;;;13.77;;
46717;SDS011;32448;44.960;-0.698;2023-03-01T16:11:21;19.65;;;13.95;;
46717;SDS011;32448;44.960;-0.698;2023-03-01T16:13:48;18.42;;;13.02;;
46717;SDS011;32448;44.960;-0.698;2023-03-01T16:16:16;19.88;;;14.02;;
46717;SDS011;32448;44.960;-0.698;2023-03-01T16:18:46;21.35;;;13.73;;
46717;SDS011;32448;44.960;-0.698;2023-03-01T16:21:15;19.10;;;13.48;;
46717;SDS011;32448;44.960;-0.698;2023-03-01T16:23:47;22.08;;;14.82;;
46717;SDS011;32448;44.960;-0.698;2023-03-01T16:26:15;22.20;;;14.98;;
46717;SDS011;32448;44.960;-0.698;2023-03-01T16:28:45;20.50;;;14.30;;
46717;SDS011;32448;44.960;-0.698;2023-03-01T16:31:18;22.10;;;14.50;;
46717;SDS011;32448;44.960;-0.698;2023-03-01T16:33:47;22.80;;;15.00;;
46717;SDS011;32448;44.960;-0.698;2023-03-01T16:36:17;22.55;;;15.15;;
46717;SDS011;32448;44.960;-0.698;2023-03-01T16:38:46;21.05;;;14.43;;
46717;SDS011;32448;44.960;-0.698;2023-03-01T16:41:20;20.88;;;14.95;;
46717;SDS011;32448;44.960;-0.698;2023-03-01T16:43:49;23.00;;;15.70;;
46717;SDS011;32448;44.960;-0.698;2023-03-01T16:46:21;26.92;;;17.80;;
46717;SDS011;32448;44.960;-0.698;2023-03-01T16:48:55;29.05;;;18.95;;
46717;SDS011;32448;44.960;-0.698;2023-03-01T16:51:23;25.85;;;17.35;;
46717;SDS011;32448;44.960;-0.698;2023-03-01T16:53:54;28.65;;;19.95;;
46717;SDS011;32448;44.960;-0.698;2023-03-01T16:56:23;22.55;;;16.02;;
46717;SDS011;32448;44.960;-0.698;2023-03-01T17:01:22;24.55;;;15.73;;
46717;SDS011;32448;44.960;-0.698;2023-03-01T17:03:52;26.70;;;17.00;;
46717;SDS011;32448;44.960;-0.698;2023-03-01T17:06:20;25.88;;;16.80;;
46717;SDS011;32448;44.960;-0.698;2023-03-01T17:08:48;23.65;;;16.67;;
46717;SDS011;32448;44.960;-0.698;2023-03-01T17:11:16;24.40;;;16.50;;
46717;SDS011;32448;44.960;-0.698;2023-03-01T17:13:46;24.42;;;16.10;;
46717;SDS011;32448;44.960;-0.698;2023-03-01T17:16:16;23.55;;;16.38;;
46717;SDS011;32448;44.960;-0.698;2023-03-01T17:18:46;26.45;;;16.83;;
46717;SDS011;32448;44.960;-0.698;2023-03-01T17:21:14;24.55;;;16.77;;
46717;SDS011;32448;44.960;-0.698;2023-03-01T17:23:43;24.95;;;16.83;;
46717;SDS011;32448;44.960;-0.698;2023-03-01T17:26:11;25.85;;;16.45;;
46717;SDS011;32448;44.960;-0.698;2023-03-01T17:28:39;25.02;;;16.52;;
46717;SDS011;32448;44.960;-0.698;2023-03-01T17:31:06;26.27;;;16.17;;
46717;SDS011;32448;44.960;-0.698;2023-03-01T17:36:24;27.65;;;18.02;;
46717;SDS011;32448;44.960;-0.698;2023-03-01T17:39:13;29.13;;;18.67;;
46717;SDS011;32448;44.960;-0.698;2023-03-01T17:41:42;30.73;;;19.00;;
46717;SDS011;32448;44.960;-0.698;2023-03-01T17:44:10;29.48;;;18.17;;
46717;SDS011;32448;44.960;-0.698;2023-03-01T17:46:42;30.33;;;19.33;;
46717;SDS011;32448;44.960;-0.698;2023-03-01T17:49:15;28.13;;;17.80;;
46717;SDS011;32448;44.960;-0.698;2023-03-01T17:51:48;27.40;;;18.40;;
46717;SDS011;32448;44.960;-0.698;2023-03-01T17:54:15;27.13;;;17.92;;
46717;SDS011;32448;44.960;-0.698;2023-03-01T17:56:43;28.65;;;19.27;;
46717;SDS011;32448;44.960;-0.698;2023-03-01T17:59:12;29.35;;;19.80;;
46717;SDS011;32448;44.960;-0.698;2023-03-01T18:01:40;33.92;;;20.25;;
46717;SDS011;32448;44.960;-0.698;2023-03-01T18:04:10;31.52;;;19.45;;
46717;SDS011;32448;44.960;-0.698;2023-03-01T18:06:39;31.50;;;20.42;;
46717;SDS011;32448;44.960;-0.698;2023-03-01T18:09:07;31.20;;;20.80;;
46717;SDS011;32448;44.960;-0.698;2023-03-01T18:11:35;34.42;;;21.17;;
46717;SDS011;32448;44.960;-0.698;2023-03-01T18:14:03;29.65;;;20.10;;
46717;SDS011;32448;44.960;-0.698;2023-03-01T18:16:30;30.80;;;20.00;;
46717;SDS011;32448;44.960;-0.698;2023-03-01T18:19:02;33.22;;;20.27;;
46717;SDS011;32448;44.960;-0.698;2023-03-01T18:21:32;33.10;;;20.23;;
46717;SDS011;32448;44.960;-0.698;2023-03-01T18:23:59;27.52;;;18.83;;
46717;SDS011;32448;44.960;-0.698;2023-03-01T18:26:33;29.35;;;19.58;;
46717;SDS011;32448;44.960;-0.698;2023-03-01T18:29:01;30.08;;;19.45;;
46717;SDS011;32448;44.960;-0.698;2023-03-01T18:31:30;32.33;;;19.30;;
46717;SDS011;32448;44.960;-0.698;2023-03-01T18:33:59;29.02;;;18.33;;
46717;SDS011;32448;44.960;-0.698;2023-03-01T18:36:28;29.50;;;18.80;;
46717;SDS011;32448;44.960;-0.698;2023-03-01T18:39:10;26.48;;;17.70;;
46717;SDS011;32448;44.960;-0.698;2023-03-01T18:41:37;29.20;;;18.63;;
46717;SDS011;32448;44.960;-0.698;2023-03-01T18:44:05;29.60;;;17.95;;
46717;SDS011;32448;44.960;-0.698;2023-03-01T18:46:40;29.20;;;18.17;;
46717;SDS011;32448;44.960;-0.698;2023-03-01T18:49:14;29.05;;;17.52;;
46717;SDS011;32448;44.960;-0.698;2023-03-01T18:52:11;32.58;;;20.20;;
46717;SDS011;32448;44.960;-0.698;2023-03-01T18:54:53;34.35;;;21.05;;
46717;SDS011;32448;44.960;-0.698;2023-03-01T18:57:30;33.42;;;22.20;;
46717;SDS011;32448;44.960;-0.698;2023-03-01T19:00:04;32.97;;;21.05;;
46717;SDS011;32448;44.960;-0.698;2023-03-01T19:02:33;33.72;;;20.60;;
46717;SDS011;32448;44.960;-0.698;2023-03-01T19:05:04;34.38;;;21.02;;
46717;SDS011;32448;44.960;-0.698;2023-03-01T19:10:34;35.08;;;21.45;;
46717;SDS011;32448;44.960;-0.698;2023-03-01T19:13:02;37.30;;;21.20;;
46717;SDS011;32448;44.960;-0.698;2023-03-01T19:15:39;35.47;;;22.70;;
46717;SDS011;32448;44.960;-0.698;2023-03-01T19:18:12;34.15;;;20.73;;
46717;SDS011;32448;44.960;-0.698;2023-03-01T19:21:17;33.53;;;20.35;;
46717;SDS011;32448;44.960;-0.698;2023-03-01T19:23:52;31.50;;;20.15;;
46717;SDS011;32448;44.960;-0.698;2023-03-01T19:26:22;39.33;;;23.83;;
46717;SDS011;32448;44.960;-0.698;2023-03-01T19:29:17;42.00;;;26.13;;
46717;SDS011;32448;44.960;-0.698;2023-03-01T19:31:51;37.17;;;24.42;;
46717;SDS011;32448;44.960;-0.698;2023-03-01T19:34:24;37.60;;;23.27;;
46717;SDS011;32448;44.960;-0.698;2023-03-01T19:37:26;35.95;;;22.20;;
46717;SDS011;32448;44.960;-0.698;2023-03-01T19:40:25;34.97;;;21.88;;
46717;SDS011;32448;44.960;-0.698;2023-03-01T19:42:53;37.38;;;22.45;;
46717;SDS011;32448;44.960;-0.698;2023-03-01T19:45:34;35.63;;;21.23;;
46717;SDS011;32448;44.960;-0.698;2023-03-01T19:48:29;36.80;;;21.30;;
46717;SDS011;32448;44.960;-0.698;2023-03-01T19:51:07;38.60;;;21.65;;
46717;SDS011;32448;44.960;-0.698;2023-03-01T19:53:39;39.10;;;22.52;;
46717;SDS011;32448;44.960;-0.698;2023-03-01T19:56:14;38.15;;;22.60;;
46717;SDS011;32448;44.960;-0.698;2023-03-01T19:58:43;47.25;;;25.23;;
46717;SDS011;32448;44.960;-0.698;2023-03-01T20:01:19;48.15;;;26.55;;
46717;SDS011;32448;44.960;-0.698;2023-03-01T20:03:47;42.78;;;24.77;;
46717;SDS011;32448;44.960;-0.698;2023-03-01T20:06:16;40.67;;;22.65;;
46717;SDS011;32448;44.960;-0.698;2023-03-01T20:08:48;43.47;;;23.33;;
46717;SDS011;32448;44.960;-0.698;2023-03-01T20:11:46;39.95;;;22.80;;
46717;SDS011;32448;44.960;-0.698;2023-03-01T20:14:37;41.25;;;22.80;;
46717;SDS011;32448;44.960;-0.698;2023-03-01T20:17:10;40.22;;;21.83;;
46717;SDS011;32448;44.960;-0.698;2023-03-01T20:19:38;41.85;;;23.23;;
46717;SDS011;32448;44.960;-0.698;2023-03-01T20:22:06;41.42;;;23.23;;
46717;SDS011;32448;44.960;-0.698;2023-03-01T20:24:36;45.30;;;24.20;;
46717;SDS011;32448;44.960;-0.698;2023-03-01T20:27:06;47.35;;;24.90;;
46717;SDS011;32448;44.960;-0.698;2023-03-01T20:29:34;49.40;;;26.40;;
46717;SDS011;32448;44.960;-0.698;2023-03-01T20:32:01;47.35;;;24.50;;
46717;SDS011;32448;44.960;-0.698;2023-03-01T20:34:29;46.50;;;25.13;;
46717;SDS011;32448;44.960;-0.698;2023-03-01T20:36:57;44.13;;;23.85;;
46717;SDS011;32448;44.960;-0.698;2023-03-01T20:39:24;48.40;;;23.65;;
46717;SDS011;32448;44.960;-0.698;2023-03-01T20:41:52;62.88;;;29.75;;
46717;SDS011;32448;44.960;-0.698;2023-03-01T20:44:21;61.75;;;29.85;;
46717;SDS011;32448;44.960;-0.698;2023-03-01T20:46:48;52.10;;;25.77;;
46717;SDS011;32448;44.960;-0.698;2023-03-01T20:49:16;48.55;;;26.60;;
46717;SDS011;32448;44.960;-0.698;2023-03-01T20:51:46;45.53;;;25.90;;
46717;SDS011;32448;44.960;-0.698;2023-03-01T20:54:14;48.78;;;25.33;;
46717;SDS011;32448;44.960;-0.698;2023-03-01T20:56:42;49.40;;;25.15;;
46717;SDS011;32448;44.960;-0.698;2023-03-01T20:59:11;53.47;;;27.13;;
46717;SDS011;32448;44.960;-0.698;2023-03-01T21:01:42;49.83;;;25.73;;
46717;SDS011;32448;44.960;-0.698;2023-03-01T21:04:12;52.08;;;26.58;;
46717;SDS011;32448;44.960;-0.698;2023-03-01T21:06:40;47.78;;;24.55;;
46717;SDS011;32448;44.960;-0.698;2023-03-01T21:09:09;49.05;;;24.15;;
46717;SDS011;32448;44.960;-0.698;2023-03-01T21:11:37;48.53;;;24.55;;
46717;SDS011;32448;44.960;-0.698;2023-03-01T21:14:05;49.38;;;24.15;;
46717;SDS011;32448;44.960;-0.698;2023-03-01T21:16:32;42.90;;;22.88;;
46717;SDS011;32448;44.960;-0.698;2023-03-01T21:19:01;43.13;;;23.20;;
46717;SDS011;32448;44.960;-0.698;2023-03-01T21:21:33;45.97;;;24.80;;
46717;SDS011;32448;44.960;-0.698;2023-03-01T21:24:02;48.60;;;26.10;;
46717;SDS011;32448;44.960;-0.698;2023-03-01T21:26:29;41.95;;;22.65;;
46717;SDS011;32448;44.960;-0.698;2023-03-01T21:28:58;40.70;;;20.70;;
46717;SDS011;32448;44.960;-0.698;2023-03-01T21:31:30;36.65;;;20.83;;
46717;SDS011;32448;44.960;-0.698;2023-03-01T21:34:02;40.40;;;22.48;;
46717;SDS011;32448;44.960;-0.698;2023-03-01T21:36:31;39.25;;;21.02;;
46717;SDS011;32448;44.960;-0.698;2023-03-01T21:39:00;39.55;;;21.13;;
46717;SDS011;32448;44.960;-0.698;2023-03-01T21:41:29;37.20;;;20.20;;
46717;SDS011;32448;44.960;-0.698;2023-03-01T21:43:59;35.90;;;20.27;;
46717;SDS011;32448;44.960;-0.698;2023-03-01T21:46:29;34.30;;;19.52;;
46717;SDS011;32448;44.960;-0.698;2023-03-01T21:48:59;33.60;;;19.10;;
46717;SDS011;32448;44.960;-0.698;2023-03-01T21:51:29;35.85;;;19.88;;
46717;SDS011;32448;44.960;-0.698;2023-03-01T21:53:58;32.75;;;18.85;;
46717;SDS011;32448;44.960;-0.698;2023-03-01T21:56:28;35.03;;;20.55;;
46717;SDS011;32448;44.960;-0.698;2023-03-01T21:58:57;33.28;;;19.20;;
46717;SDS011;32448;44.960;-0.698;2023-03-01T22:01:25;34.22;;;19.83;;
46717;SDS011;32448;44.960;-0.698;2023-03-01T22:03:58;31.58;;;19.13;;
46717;SDS011;32448;44.960;-0.698;2023-03-01T22:06:27;29.88;;;18.55;;
46717;SDS011;32448;44.960;-0.698;2023-03-01T22:09:02;33.85;;;18.75;;
46717;SDS011;32448;44.960;-0.698;2023-03-01T22:11:34;31.83;;;17.92;;
46717;SDS011;32448;44.960;-0.698;2023-03-01T22:14:11;31.05;;;17.45;;
46717;SDS011;32448;44.960;-0.698;2023-03-01T22:16:39;34.40;;;19.00;;
46717;SDS011;32448;44.960;-0.698;2023-03-01T22:19:08;33.95;;;18.25;;
46717;SDS011;32448;44.960;-0.698;2023-03-01T22:21:38;31.35;;;18.95;;